sensor_id;sensor_type;location;lat;lon;timestamp;P1;durP1;ratioP1;P2;durP2;ratioP2
83125;SDS011;73488;47.234;-1.540;2024-01-11T00:00:47;6.25;;;4.95;;
83125;SDS011;73488;47.234;-1.540;2024-01-11T00:03:13;6.10;;;4.45;;
83125;SDS011;73488;47.234;-1.540;2024-01-11T00:05:38;7.55;;;5.07;;
83125;SDS011;73488;47.234;-1.540;2024-01-11T00:08:04;6.47;;;5.55;;
83125;SDS011;73488;47.234;-1.540;2024-01-11T00:10:30;5.75;;;5.15;;
83125;SDS011;73488;47.234;-1.540;2024-01-11T00:12:55;8.13;;;6.22;;
83125;SDS011;73488;47.234;-1.540;2024-01-11T00:15:20;6.70;;;5.80;;
83125;SDS011;73488;47.234;-1.540;2024-01-11T00:17:46;8.68;;;4.78;;
83125;SDS011;73488;47.234;-1.540;2024-01-11T00:20:11;6.63;;;5.55;;
83125;SDS011;73488;47.234;-1.540;2024-01-11T00:22:37;7.10;;;5.65;;
83125;SDS011;73488;47.234;-1.540;2024-01-11T00:25:02;7.30;;;4.47;;
83125;SDS011;73488;47.234;-1.540;2024-01-11T00:27:29;7.20;;;6.18;;
83125;SDS011;73488;47.234;-1.540;2024-01-11T00:29:54;7.18;;;5.75;;
83125;SDS011;73488;47.234;-1.540;2024-01-11T00:32:19;7.18;;;5.68;;
83125;SDS011;73488;47.234;-1.540;2024-01-11T00:34:46;6.20;;;4.95;;
83125;SDS011;73488;47.234;-1.540;2024-01-11T00:37:12;8.80;;;5.32;;
83125;SDS011;73488;47.234;-1.540;2024-01-11T00:39:37;7.78;;;5.28;;
83125;SDS011;73488;47.234;-1.540;2024-01-11T00:42:03;6.18;;;5.20;;
83125;SDS011;73488;47.234;-1.540;2024-01-11T00:44:28;7.47;;;6.30;;
83125;SDS011;73488;47.234;-1.540;2024-01-11T00:46:54;7.45;;;5.65;;
83125;SDS011;73488;47.234;-1.540;2024-01-11T00:49:20;8.55;;;5.80;;
83125;SDS011;73488;47.234;-1.540;2024-01-11T00:51:45;6.68;;;6.00;;
83125;SDS011;73488;47.234;-1.540;2024-01-11T00:54:10;7.80;;;5.93;;
83125;SDS011;73488;47.234;-1.540;2024-01-11T00:56:36;7.78;;;5.38;;
83125;SDS011;73488;47.234;-1.540;2024-01-11T00:59:01;9.07;;;5.32;;
83125;SDS011;73488;47.234;-1.540;2024-01-11T01:01:28;7.70;;;5.95;;
83125;SDS011;73488;47.234;-1.540;2024-01-11T01:03:53;6.55;;;5.75;;
83125;SDS011;73488;47.234;-1.540;2024-01-11T01:06:19;7.68;;;5.50;;
83125;SDS011;73488;47.234;-1.540;2024-01-11T01:08:44;7.90;;;6.68;;
83125;SDS011;73488;47.234;-1.540;2024-01-11T01:11:10;7.07;;;5.18;;
83125;SDS011;73488;47.234;-1.540;2024-01-11T01:13:35;7.43;;;5.50;;
83125;SDS011;73488;47.234;-1.540;2024-01-11T01:16:00;7.45;;;5.85;;
83125;SDS011;73488;47.234;-1.540;2024-01-11T01:18:26;6.95;;;4.95;;
83125;SDS011;73488;47.234;-1.540;2024-01-11T01:20:51;8.82;;;7.00;;
83125;SDS011;73488;47.234;-1.540;2024-01-11T01:23:17;6.95;;;5.32;;
83125;SDS011;73488;47.234;-1.540;2024-01-11T01:25:43;7.85;;;5.70;;
83125;SDS011;73488;47.234;-1.540;2024-01-11T01:28:08;7.65;;;5.82;;
83125;SDS011;73488;47.234;-1.540;2024-01-11T01:30:34;7.50;;;5.20;;
83125;SDS011;73488;47.234;-1.540;2024-01-11T01:32:59;7.90;;;5.60;;
83125;SDS011;73488;47.234;-1.540;2024-01-11T01:35:24;6.57;;;5.43;;
83125;SDS011;73488;47.234;-1.540;2024-01-11T01:37:50;7.57;;;5.70;;
83125;SDS011;73488;47.234;-1.540;2024-01-11T01:40:15;7.30;;;6.38;;
83125;SDS011;73488;47.234;-1.540;2024-01-11T01:42:44;6.55;;;5.57;;
83125;SDS011;73488;47.234;-1.540;2024-01-11T01:45:10;8.00;;;5.50;;
83125;SDS011;73488;47.234;-1.540;2024-01-11T01:47:36;7.30;;;5.95;;
83125;SDS011;73488;47.234;-1.540;2024-01-11T01:50:02;7.53;;;5.03;;
83125;SDS011;73488;47.234;-1.540;2024-01-11T01:52:27;6.78;;;5.63;;
83125;SDS011;73488;47.234;-1.540;2024-01-11T01:54:53;8.38;;;6.43;;
83125;SDS011;73488;47.234;-1.540;2024-01-11T01:57:18;7.57;;;5.93;;
83125;SDS011;73488;47.234;-1.540;2024-01-11T01:59:45;7.75;;;5.50;;
83125;SDS011;73488;47.234;-1.540;2024-01-11T02:02:11;7.88;;;6.38;;
83125;SDS011;73488;47.234;-1.540;2024-01-11T02:04:37;6.47;;;5.50;;
83125;SDS011;73488;47.234;-1.540;2024-01-11T02:07:02;7.63;;;5.90;;
83125;SDS011;73488;47.234;-1.540;2024-01-11T02:09:29;7.10;;;4.93;;
83125;SDS011;73488;47.234;-1.540;2024-01-11T02:11:55;7.20;;;5.60;;
83125;SDS011;73488;47.234;-1.540;2024-01-11T02:14:20;6.85;;;6.15;;
83125;SDS011;73488;47.234;-1.540;2024-01-11T02:16:46;6.10;;;5.35;;
83125;SDS011;73488;47.234;-1.540;2024-01-11T02:19:12;7.10;;;5.50;;
83125;SDS011;73488;47.234;-1.540;2024-01-11T02:21:38;7.90;;;5.57;;
83125;SDS011;73488;47.234;-1.540;2024-01-11T02:24:08;7.32;;;5.45;;
83125;SDS011;73488;47.234;-1.540;2024-01-11T02:26:33;6.60;;;5.38;;
83125;SDS011;73488;47.234;-1.540;2024-01-11T02:28:59;5.75;;;5.15;;
83125;SDS011;73488;47.234;-1.540;2024-01-11T02:31:25;6.70;;;5.93;;
83125;SDS011;73488;47.234;-1.540;2024-01-11T02:33:54;5.97;;;4.50;;
83125;SDS011;73488;47.234;-1.540;2024-01-11T02:36:20;7.15;;;4.93;;
83125;SDS011;73488;47.234;-1.540;2024-01-11T02:38:46;6.57;;;5.38;;
83125;SDS011;73488;47.234;-1.540;2024-01-11T02:41:12;5.68;;;5.00;;
83125;SDS011;73488;47.234;-1.540;2024-01-11T02:43:40;6.25;;;5.22;;
83125;SDS011;73488;47.234;-1.540;2024-01-11T02:46:05;6.63;;;5.57;;
83125;SDS011;73488;47.234;-1.540;2024-01-11T02:48:30;7.05;;;5.40;;
83125;SDS011;73488;47.234;-1.540;2024-01-11T02:50:59;6.03;;;5.32;;
83125;SDS011;73488;47.234;-1.540;2024-01-11T02:53:24;7.03;;;6.07;;
83125;SDS011;73488;47.234;-1.540;2024-01-11T02:55:50;5.45;;;4.68;;
83125;SDS011;73488;47.234;-1.540;2024-01-11T02:58:15;5.93;;;5.00;;
83125;SDS011;73488;47.234;-1.540;2024-01-11T03:00:41;7.53;;;5.38;;
83125;SDS011;73488;47.234;-1.540;2024-01-11T03:03:07;5.22;;;4.53;;
83125;SDS011;73488;47.234;-1.540;2024-01-11T03:05:32;5.63;;;5.10;;
83125;SDS011;73488;47.234;-1.540;2024-01-11T03:07:57;7.45;;;5.45;;
83125;SDS011;73488;47.234;-1.540;2024-01-11T03:10:23;7.18;;;5.13;;
83125;SDS011;73488;47.234;-1.540;2024-01-11T03:12:48;5.68;;;4.90;;
83125;SDS011;73488;47.234;-1.540;2024-01-11T03:15:14;5.95;;;4.78;;
83125;SDS011;73488;47.234;-1.540;2024-01-11T03:17:40;6.43;;;4.97;;
83125;SDS011;73488;47.234;-1.540;2024-01-11T03:20:06;7.15;;;5.60;;
83125;SDS011;73488;47.234;-1.540;2024-01-11T03:22:32;6.53;;;5.25;;
83125;SDS011;73488;47.234;-1.540;2024-01-11T03:24:57;6.22;;;5.22;;
83125;SDS011;73488;47.234;-1.540;2024-01-11T03:27:23;6.07;;;5.38;;
83125;SDS011;73488;47.234;-1.540;2024-01-11T03:29:48;6.47;;;5.18;;
83125;SDS011;73488;47.234;-1.540;2024-01-11T03:32:14;7.07;;;5.47;;
83125;SDS011;73488;47.234;-1.540;2024-01-11T03:34:40;5.35;;;4.80;;
83125;SDS011;73488;47.234;-1.540;2024-01-11T03:37:05;5.25;;;4.72;;
83125;SDS011;73488;47.234;-1.540;2024-01-11T03:39:31;6.28;;;4.30;;
83125;SDS011;73488;47.234;-1.540;2024-01-11T03:41:56;6.50;;;4.88;;
83125;SDS011;73488;47.234;-1.540;2024-01-11T03:44:22;6.85;;;4.97;;
83125;SDS011;73488;47.234;-1.540;2024-01-11T03:46:48;6.45;;;5.55;;
83125;SDS011;73488;47.234;-1.540;2024-01-11T03:49:13;6.15;;;5.40;;
83125;SDS011;73488;47.234;-1.540;2024-01-11T03:51:39;6.60;;;5.22;;
83125;SDS011;73488;47.234;-1.540;2024-01-11T03:54:05;5.57;;;4.50;;
83125;SDS011;73488;47.234;-1.540;2024-01-11T03:56:30;6.20;;;5.32;;
83125;SDS011;73488;47.234;-1.540;2024-01-11T03:58:56;6.20;;;4.60;;
83125;SDS011;73488;47.234;-1.540;2024-01-11T04:01:21;5.90;;;4.65;;
83125;SDS011;73488;47.234;-1.540;2024-01-11T04:03:46;5.70;;;5.03;;
83125;SDS011;73488;47.234;-1.540;2024-01-11T04:06:22;5.40;;;4.78;;
83125;SDS011;73488;47.234;-1.540;2024-01-11T04:08:48;6.53;;;4.93;;
83125;SDS011;73488;47.234;-1.540;2024-01-11T04:11:14;5.95;;;5.35;;
83125;SDS011;73488;47.234;-1.540;2024-01-11T04:13:40;6.40;;;5.30;;
83125;SDS011;73488;47.234;-1.540;2024-01-11T04:16:05;6.38;;;4.97;;
83125;SDS011;73488;47.234;-1.540;2024-01-11T04:18:31;6.25;;;5.20;;
83125;SDS011;73488;47.234;-1.540;2024-01-11T04:20:57;6.03;;;4.95;;
83125;SDS011;73488;47.234;-1.540;2024-01-11T04:23:23;5.93;;;4.90;;
83125;SDS011;73488;47.234;-1.540;2024-01-11T04:25:48;5.97;;;4.88;;
83125;SDS011;73488;47.234;-1.540;2024-01-11T04:28:15;5.60;;;5.00;;
83125;SDS011;73488;47.234;-1.540;2024-01-11T04:30:41;6.53;;;4.18;;
83125;SDS011;73488;47.234;-1.540;2024-01-11T04:33:06;6.20;;;5.53;;
83125;SDS011;73488;47.234;-1.540;2024-01-11T04:35:32;6.65;;;4.68;;
83125;SDS011;73488;47.234;-1.540;2024-01-11T04:37:57;7.82;;;5.20;;
83125;SDS011;73488;47.234;-1.540;2024-01-11T04:40:22;5.53;;;4.80;;
83125;SDS011;73488;47.234;-1.540;2024-01-11T04:42:48;6.15;;;5.18;;
83125;SDS011;73488;47.234;-1.540;2024-01-11T04:45:13;7.00;;;5.68;;
83125;SDS011;73488;47.234;-1.540;2024-01-11T04:47:38;6.55;;;5.32;;
83125;SDS011;73488;47.234;-1.540;2024-01-11T04:50:04;5.90;;;5.30;;
83125;SDS011;73488;47.234;-1.540;2024-01-11T04:52:30;6.38;;;5.55;;
83125;SDS011;73488;47.234;-1.540;2024-01-11T04:54:55;5.88;;;4.95;;
83125;SDS011;73488;47.234;-1.540;2024-01-11T04:57:21;5.85;;;5.25;;
83125;SDS011;73488;47.234;-1.540;2024-01-11T04:59:46;5.90;;;5.28;;
83125;SDS011;73488;47.234;-1.540;2024-01-11T05:02:11;5.75;;;4.75;;
83125;SDS011;73488;47.234;-1.540;2024-01-11T05:04:37;6.25;;;5.07;;
83125;SDS011;73488;47.234;-1.540;2024-01-11T05:07:02;7.07;;;5.40;;
83125;SDS011;73488;47.234;-1.540;2024-01-11T05:09:28;6.53;;;5.65;;
83125;SDS011;73488;47.234;-1.540;2024-01-11T05:11:53;5.60;;;5.03;;
83125;SDS011;73488;47.234;-1.540;2024-01-11T05:14:18;6.20;;;4.93;;
83125;SDS011;73488;47.234;-1.540;2024-01-11T05:16:44;6.85;;;5.80;;
83125;SDS011;73488;47.234;-1.540;2024-01-11T05:19:09;6.80;;;5.32;;
83125;SDS011;73488;47.234;-1.540;2024-01-11T05:21:35;5.85;;;4.18;;
83125;SDS011;73488;47.234;-1.540;2024-01-11T05:24:00;5.63;;;4.88;;
83125;SDS011;73488;47.234;-1.540;2024-01-11T05:26:26;6.70;;;6.00;;
83125;SDS011;73488;47.234;-1.540;2024-01-11T05:28:51;5.53;;;5.03;;
83125;SDS011;73488;47.234;-1.540;2024-01-11T05:31:17;6.28;;;5.40;;
83125;SDS011;73488;47.234;-1.540;2024-01-11T05:33:42;5.53;;;5.00;;
83125;SDS011;73488;47.234;-1.540;2024-01-11T05:36:08;6.20;;;5.05;;
83125;SDS011;73488;47.234;-1.540;2024-01-11T05:38:34;5.50;;;4.85;;
83125;SDS011;73488;47.234;-1.540;2024-01-11T05:40:59;6.20;;;4.75;;
83125;SDS011;73488;47.234;-1.540;2024-01-11T05:43:25;6.43;;;5.45;;
83125;SDS011;73488;47.234;-1.540;2024-01-11T05:45:51;5.15;;;3.85;;
83125;SDS011;73488;47.234;-1.540;2024-01-11T05:48:17;5.47;;;4.82;;
83125;SDS011;73488;47.234;-1.540;2024-01-11T05:50:43;7.93;;;5.82;;
83125;SDS011;73488;47.234;-1.540;2024-01-11T05:53:08;5.88;;;4.93;;
83125;SDS011;73488;47.234;-1.540;2024-01-11T05:55:34;6.07;;;5.10;;
83125;SDS011;73488;47.234;-1.540;2024-01-11T05:58:00;6.95;;;5.53;;
83125;SDS011;73488;47.234;-1.540;2024-01-11T06:00:25;6.85;;;5.88;;
83125;SDS011;73488;47.234;-1.540;2024-01-11T06:02:51;6.30;;;5.70;;
83125;SDS011;73488;47.234;-1.540;2024-01-11T06:05:16;6.22;;;5.55;;
83125;SDS011;73488;47.234;-1.540;2024-01-11T06:07:42;5.80;;;5.28;;
83125;SDS011;73488;47.234;-1.540;2024-01-11T06:10:07;5.60;;;5.05;;
83125;SDS011;73488;47.234;-1.540;2024-01-11T06:12:34;5.50;;;5.00;;
83125;SDS011;73488;47.234;-1.540;2024-01-11T06:15:02;6.72;;;5.80;;
83125;SDS011;73488;47.234;-1.540;2024-01-11T06:17:28;7.28;;;5.43;;
83125;SDS011;73488;47.234;-1.540;2024-01-11T06:19:55;6.43;;;5.55;;
83125;SDS011;73488;47.234;-1.540;2024-01-11T06:22:20;7.63;;;5.43;;
83125;SDS011;73488;47.234;-1.540;2024-01-11T06:24:46;6.97;;;5.35;;
83125;SDS011;73488;47.234;-1.540;2024-01-11T06:27:11;6.82;;;5.65;;
83125;SDS011;73488;47.234;-1.540;2024-01-11T06:29:37;5.00;;;4.50;;
83125;SDS011;73488;47.234;-1.540;2024-01-11T06:32:02;6.18;;;5.38;;
83125;SDS011;73488;47.234;-1.540;2024-01-11T06:34:28;5.03;;;4.40;;
83125;SDS011;73488;47.234;-1.540;2024-01-11T06:36:54;5.80;;;5.00;;
83125;SDS011;73488;47.234;-1.540;2024-01-11T06:39:19;7.35;;;5.57;;
83125;SDS011;73488;47.234;-1.540;2024-01-11T06:41:45;6.78;;;5.55;;
83125;SDS011;73488;47.234;-1.540;2024-01-11T06:44:10;5.75;;;4.97;;
83125;SDS011;73488;47.234;-1.540;2024-01-11T06:46:36;6.30;;;5.22;;
83125;SDS011;73488;47.234;-1.540;2024-01-11T06:49:04;6.90;;;5.10;;
83125;SDS011;73488;47.234;-1.540;2024-01-11T06:51:29;7.93;;;5.57;;
83125;SDS011;73488;47.234;-1.540;2024-01-11T06:53:55;6.18;;;5.38;;
83125;SDS011;73488;47.234;-1.540;2024-01-11T06:56:20;6.78;;;4.80;;
83125;SDS011;73488;47.234;-1.540;2024-01-11T06:58:46;5.78;;;5.07;;
83125;SDS011;73488;47.234;-1.540;2024-01-11T07:01:11;6.50;;;5.20;;
83125;SDS011;73488;47.234;-1.540;2024-01-11T07:03:37;5.57;;;4.05;;
83125;SDS011;73488;47.234;-1.540;2024-01-11T07:06:03;6.07;;;5.47;;
83125;SDS011;73488;47.234;-1.540;2024-01-11T07:08:29;6.60;;;4.60;;
83125;SDS011;73488;47.234;-1.540;2024-01-11T07:10:55;6.07;;;5.15;;
83125;SDS011;73488;47.234;-1.540;2024-01-11T07:13:21;5.35;;;4.47;;
83125;SDS011;73488;47.234;-1.540;2024-01-11T07:15:47;7.10;;;4.80;;
83125;SDS011;73488;47.234;-1.540;2024-01-11T07:18:13;5.45;;;4.78;;
83125;SDS011;73488;47.234;-1.540;2024-01-11T07:20:39;6.13;;;4.85;;
83125;SDS011;73488;47.234;-1.540;2024-01-11T07:23:05;8.55;;;5.28;;
83125;SDS011;73488;47.234;-1.540;2024-01-11T07:25:30;7.30;;;5.20;;
83125;SDS011;73488;47.234;-1.540;2024-01-11T07:27:55;5.80;;;5.18;;
83125;SDS011;73488;47.234;-1.540;2024-01-11T07:30:21;6.72;;;4.97;;
83125;SDS011;73488;47.234;-1.540;2024-01-11T07:32:46;7.47;;;5.20;;
83125;SDS011;73488;47.234;-1.540;2024-01-11T07:35:12;7.93;;;4.85;;
83125;SDS011;73488;47.234;-1.540;2024-01-11T07:37:38;7.43;;;5.20;;
83125;SDS011;73488;47.234;-1.540;2024-01-11T07:40:05;7.25;;;5.30;;
83125;SDS011;73488;47.234;-1.540;2024-01-11T07:42:35;9.10;;;5.85;;
83125;SDS011;73488;47.234;-1.540;2024-01-11T07:45:00;7.88;;;5.28;;
83125;SDS011;73488;47.234;-1.540;2024-01-11T07:47:26;8.70;;;5.03;;
83125;SDS011;73488;47.234;-1.540;2024-01-11T07:49:51;7.45;;;4.95;;
83125;SDS011;73488;47.234;-1.540;2024-01-11T07:52:17;7.55;;;5.25;;
83125;SDS011;73488;47.234;-1.540;2024-01-11T07:54:43;6.65;;;5.47;;
83125;SDS011;73488;47.234;-1.540;2024-01-11T07:57:08;8.27;;;4.90;;
83125;SDS011;73488;47.234;-1.540;2024-01-11T07:59:34;7.80;;;4.28;;
83125;SDS011;73488;47.234;-1.540;2024-01-11T08:02:01;6.60;;;4.80;;
83125;SDS011;73488;47.234;-1.540;2024-01-11T08:04:27;7.65;;;5.40;;
83125;SDS011;73488;47.234;-1.540;2024-01-11T08:06:52;6.18;;;5.13;;
83125;SDS011;73488;47.234;-1.540;2024-01-11T08:09:18;8.25;;;5.85;;
83125;SDS011;73488;47.234;-1.540;2024-01-11T08:11:43;7.97;;;5.18;;
83125;SDS011;73488;47.234;-1.540;2024-01-11T08:14:09;10.50;;;5.80;;
83125;SDS011;73488;47.234;-1.540;2024-01-11T08:16:34;7.07;;;5.30;;
83125;SDS011;73488;47.234;-1.540;2024-01-11T08:19:00;8.52;;;5.72;;
83125;SDS011;73488;47.234;-1.540;2024-01-11T08:21:28;7.13;;;5.57;;
83125;SDS011;73488;47.234;-1.540;2024-01-11T08:23:54;8.85;;;5.45;;
83125;SDS011;73488;47.234;-1.540;2024-01-11T08:26:19;8.25;;;5.30;;
83125;SDS011;73488;47.234;-1.540;2024-01-11T08:28:46;7.45;;;5.22;;
83125;SDS011;73488;47.234;-1.540;2024-01-11T08:31:12;7.38;;;4.80;;
83125;SDS011;73488;47.234;-1.540;2024-01-11T08:33:38;6.10;;;5.07;;
83125;SDS011;73488;47.234;-1.540;2024-01-11T08:36:04;7.57;;;5.13;;
83125;SDS011;73488;47.234;-1.540;2024-01-11T08:38:30;6.70;;;5.20;;
83125;SDS011;73488;47.234;-1.540;2024-01-11T08:40:55;7.05;;;5.60;;
83125;SDS011;73488;47.234;-1.540;2024-01-11T08:43:21;8.52;;;5.55;;
83125;SDS011;73488;47.234;-1.540;2024-01-11T08:45:46;8.38;;;5.38;;
83125;SDS011;73488;47.234;-1.540;2024-01-11T08:48:14;6.55;;;5.57;;
83125;SDS011;73488;47.234;-1.540;2024-01-11T08:50:40;7.70;;;5.72;;
83125;SDS011;73488;47.234;-1.540;2024-01-11T08:53:06;7.03;;;5.78;;
83125;SDS011;73488;47.234;-1.540;2024-01-11T08:55:31;8.98;;;6.05;;
83125;SDS011;73488;47.234;-1.540;2024-01-11T08:57:57;7.38;;;5.50;;
83125;SDS011;73488;47.234;-1.540;2024-01-11T09:00:23;6.63;;;4.68;;
83125;SDS011;73488;47.234;-1.540;2024-01-11T09:02:48;8.48;;;5.25;;
83125;SDS011;73488;47.234;-1.540;2024-01-11T09:05:14;7.50;;;5.45;;
83125;SDS011;73488;47.234;-1.540;2024-01-11T09:07:40;7.32;;;5.18;;
83125;SDS011;73488;47.234;-1.540;2024-01-11T09:10:06;5.93;;;4.93;;
83125;SDS011;73488;47.234;-1.540;2024-01-11T09:12:33;6.60;;;5.20;;
83125;SDS011;73488;47.234;-1.540;2024-01-11T09:14:59;6.68;;;4.38;;
83125;SDS011;73488;47.234;-1.540;2024-01-11T09:17:25;7.32;;;5.53;;
83125;SDS011;73488;47.234;-1.540;2024-01-11T09:19:50;7.32;;;5.68;;
83125;SDS011;73488;47.234;-1.540;2024-01-11T09:22:16;8.35;;;5.15;;
83125;SDS011;73488;47.234;-1.540;2024-01-11T09:24:42;8.27;;;5.70;;
83125;SDS011;73488;47.234;-1.540;2024-01-11T09:27:07;8.15;;;4.82;;
83125;SDS011;73488;47.234;-1.540;2024-01-11T09:29:33;7.32;;;6.03;;
83125;SDS011;73488;47.234;-1.540;2024-01-11T09:31:58;8.10;;;5.90;;
83125;SDS011;73488;47.234;-1.540;2024-01-11T09:34:24;8.48;;;5.75;;
83125;SDS011;73488;47.234;-1.540;2024-01-11T09:36:50;6.85;;;5.35;;
83125;SDS011;73488;47.234;-1.540;2024-01-11T09:39:15;6.40;;;5.22;;
83125;SDS011;73488;47.234;-1.540;2024-01-11T09:41:42;8.60;;;6.05;;
83125;SDS011;73488;47.234;-1.540;2024-01-11T09:44:13;8.63;;;6.20;;
83125;SDS011;73488;47.234;-1.540;2024-01-11T09:46:39;7.07;;;5.93;;
83125;SDS011;73488;47.234;-1.540;2024-01-11T09:49:04;8.50;;;5.65;;
83125;SDS011;73488;47.234;-1.540;2024-01-11T09:51:30;8.52;;;5.43;;
83125;SDS011;73488;47.234;-1.540;2024-01-11T09:53:56;9.32;;;5.82;;
83125;SDS011;73488;47.234;-1.540;2024-01-11T09:56:23;9.43;;;6.13;;
83125;SDS011;73488;47.234;-1.540;2024-01-11T09:58:50;8.90;;;6.38;;
83125;SDS011;73488;47.234;-1.540;2024-01-11T10:01:15;7.38;;;6.32;;
83125;SDS011;73488;47.234;-1.540;2024-01-11T10:03:41;7.95;;;5.10;;
83125;SDS011;73488;47.234;-1.540;2024-01-11T10:06:07;8.20;;;6.35;;
83125;SDS011;73488;47.234;-1.540;2024-01-11T10:08:34;7.18;;;5.93;;
83125;SDS011;73488;47.234;-1.540;2024-01-11T10:11:00;8.38;;;6.10;;
83125;SDS011;73488;47.234;-1.540;2024-01-11T10:13:29;7.57;;;5.70;;
83125;SDS011;73488;47.234;-1.540;2024-01-11T10:16:10;8.07;;;5.88;;
83125;SDS011;73488;47.234;-1.540;2024-01-11T10:18:40;6.85;;;5.63;;
83125;SDS011;73488;47.234;-1.540;2024-01-11T10:21:06;7.18;;;5.70;;
83125;SDS011;73488;47.234;-1.540;2024-01-11T10:23:38;9.13;;;5.63;;
83125;SDS011;73488;47.234;-1.540;2024-01-11T10:26:04;7.40;;;5.80;;
83125;SDS011;73488;47.234;-1.540;2024-01-11T10:28:29;9.80;;;4.90;;
83125;SDS011;73488;47.234;-1.540;2024-01-11T10:30:55;7.65;;;5.35;;
83125;SDS011;73488;47.234;-1.540;2024-01-11T10:33:22;6.78;;;5.00;;
83125;SDS011;73488;47.234;-1.540;2024-01-11T10:35:48;8.43;;;6.35;;
83125;SDS011;73488;47.234;-1.540;2024-01-11T10:38:16;6.97;;;5.05;;
83125;SDS011;73488;47.234;-1.540;2024-01-11T10:40:43;6.80;;;5.28;;
83125;SDS011;73488;47.234;-1.540;2024-01-11T10:43:09;7.43;;;5.45;;
83125;SDS011;73488;47.234;-1.540;2024-01-11T10:45:39;7.40;;;5.75;;
83125;SDS011;73488;47.234;-1.540;2024-01-11T10:48:14;7.45;;;6.03;;
83125;SDS011;73488;47.234;-1.540;2024-01-11T10:50:44;8.75;;;5.18;;
83125;SDS011;73488;47.234;-1.540;2024-01-11T10:53:24;8.32;;;5.53;;
83125;SDS011;73488;47.234;-1.540;2024-01-11T10:55:57;9.05;;;5.85;;
83125;SDS011;73488;47.234;-1.540;2024-01-11T10:58:24;7.63;;;5.35;;
83125;SDS011;73488;47.234;-1.540;2024-01-11T11:00:51;6.60;;;4.78;;
83125;SDS011;73488;47.234;-1.540;2024-01-11T11:03:22;7.32;;;5.88;;
83125;SDS011;73488;47.234;-1.540;2024-01-11T11:05:49;6.47;;;5.35;;
83125;SDS011;73488;47.234;-1.540;2024-01-11T11:08:15;8.60;;;5.45;;
83125;SDS011;73488;47.234;-1.540;2024-01-11T11:10:42;5.78;;;5.13;;
83125;SDS011;73488;47.234;-1.540;2024-01-11T11:13:08;7.78;;;5.68;;
83125;SDS011;73488;47.234;-1.540;2024-01-11T11:15:35;6.68;;;4.82;;
83125;SDS011;73488;47.234;-1.540;2024-01-11T11:18:02;7.05;;;5.57;;
83125;SDS011;73488;47.234;-1.540;2024-01-11T11:20:28;6.35;;;5.50;;
83125;SDS011;73488;47.234;-1.540;2024-01-11T11:25:33;6.32;;;5.32;;
83125;SDS011;73488;47.234;-1.540;2024-01-11T11:27:59;7.55;;;5.32;;
83125;SDS011;73488;47.234;-1.540;2024-01-11T11:30:29;7.93;;;5.47;;
83125;SDS011;73488;47.234;-1.540;2024-01-11T11:32:55;7.78;;;5.80;;
83125;SDS011;73488;47.234;-1.540;2024-01-11T11:35:24;10.65;;;5.70;;
83125;SDS011;73488;47.234;-1.540;2024-01-11T11:37:53;7.95;;;5.97;;
83125;SDS011;73488;47.234;-1.540;2024-01-11T11:40:20;8.35;;;5.75;;
83125;SDS011;73488;47.234;-1.540;2024-01-11T11:42:47;9.77;;;5.72;;
83125;SDS011;73488;47.234;-1.540;2024-01-11T11:45:12;7.78;;;5.95;;
83125;SDS011;73488;47.234;-1.540;2024-01-11T11:47:49;7.80;;;5.95;;
83125;SDS011;73488;47.234;-1.540;2024-01-11T11:50:15;8.80;;;6.50;;
83125;SDS011;73488;47.234;-1.540;2024-01-11T11:52:40;7.55;;;5.15;;
83125;SDS011;73488;47.234;-1.540;2024-01-11T11:55:09;8.65;;;5.78;;
83125;SDS011;73488;47.234;-1.540;2024-01-11T11:57:34;7.88;;;5.85;;
83125;SDS011;73488;47.234;-1.540;2024-01-11T12:00:00;8.07;;;5.28;;
83125;SDS011;73488;47.234;-1.540;2024-01-11T12:02:36;7.32;;;5.55;;
83125;SDS011;73488;47.234;-1.540;2024-01-11T12:05:02;6.93;;;5.20;;
83125;SDS011;73488;47.234;-1.540;2024-01-11T12:07:29;7.88;;;4.70;;
83125;SDS011;73488;47.234;-1.540;2024-01-11T12:09:54;8.82;;;6.10;;
83125;SDS011;73488;47.234;-1.540;2024-01-11T12:12:20;8.23;;;5.30;;
83125;SDS011;73488;47.234;-1.540;2024-01-11T12:14:48;7.60;;;4.85;;
83125;SDS011;73488;47.234;-1.540;2024-01-11T12:17:14;7.57;;;4.78;;
83125;SDS011;73488;47.234;-1.540;2024-01-11T12:19:40;6.40;;;5.13;;
83125;SDS011;73488;47.234;-1.540;2024-01-11T12:22:06;13.02;;;5.72;;
83125;SDS011;73488;47.234;-1.540;2024-01-11T12:24:31;7.38;;;5.13;;
83125;SDS011;73488;47.234;-1.540;2024-01-11T12:26:58;9.35;;;5.60;;
83125;SDS011;73488;47.234;-1.540;2024-01-11T12:29:24;6.70;;;5.65;;
83125;SDS011;73488;47.234;-1.540;2024-01-11T12:31:50;8.30;;;5.47;;
83125;SDS011;73488;47.234;-1.540;2024-01-11T12:34:16;9.95;;;5.85;;
83125;SDS011;73488;47.234;-1.540;2024-01-11T12:36:42;7.10;;;4.70;;
83125;SDS011;73488;47.234;-1.540;2024-01-11T12:39:07;7.90;;;5.78;;
83125;SDS011;73488;47.234;-1.540;2024-01-11T12:41:34;8.35;;;5.45;;
83125;SDS011;73488;47.234;-1.540;2024-01-11T12:44:00;8.07;;;5.45;;
83125;SDS011;73488;47.234;-1.540;2024-01-11T12:46:26;8.18;;;5.53;;
83125;SDS011;73488;47.234;-1.540;2024-01-11T12:48:52;9.05;;;5.32;;
83125;SDS011;73488;47.234;-1.540;2024-01-11T12:51:17;8.95;;;5.70;;
83125;SDS011;73488;47.234;-1.540;2024-01-11T12:53:46;7.95;;;5.32;;
83125;SDS011;73488;47.234;-1.540;2024-01-11T12:56:14;7.72;;;5.75;;
83125;SDS011;73488;47.234;-1.540;2024-01-11T12:58:40;7.45;;;3.95;;
83125;SDS011;73488;47.234;-1.540;2024-01-11T13:01:06;6.30;;;4.88;;
83125;SDS011;73488;47.234;-1.540;2024-01-11T13:03:33;8.05;;;5.18;;
83125;SDS011;73488;47.234;-1.540;2024-01-11T13:06:03;8.95;;;5.40;;
83125;SDS011;73488;47.234;-1.540;2024-01-11T13:08:31;6.70;;;5.55;;
83125;SDS011;73488;47.234;-1.540;2024-01-11T13:10:57;7.75;;;5.90;;
83125;SDS011;73488;47.234;-1.540;2024-01-11T13:13:23;8.35;;;6.45;;
83125;SDS011;73488;47.234;-1.540;2024-01-11T13:15:48;6.57;;;5.80;;
83125;SDS011;73488;47.234;-1.540;2024-01-11T13:18:14;7.53;;;5.32;;
83125;SDS011;73488;47.234;-1.540;2024-01-11T13:20:40;9.18;;;5.63;;
83125;SDS011;73488;47.234;-1.540;2024-01-11T13:23:15;8.48;;;5.57;;
83125;SDS011;73488;47.234;-1.540;2024-01-11T13:25:42;5.70;;;4.68;;
83125;SDS011;73488;47.234;-1.540;2024-01-11T13:28:08;7.38;;;5.97;;
83125;SDS011;73488;47.234;-1.540;2024-01-11T13:30:36;6.30;;;5.70;;
83125;SDS011;73488;47.234;-1.540;2024-01-11T13:33:02;6.97;;;4.55;;
83125;SDS011;73488;47.234;-1.540;2024-01-11T13:35:28;8.10;;;5.50;;
83125;SDS011;73488;47.234;-1.540;2024-01-11T13:37:53;7.10;;;5.35;;
83125;SDS011;73488;47.234;-1.540;2024-01-11T13:40:18;6.78;;;5.25;;
83125;SDS011;73488;47.234;-1.540;2024-01-11T13:42:44;6.95;;;4.95;;
83125;SDS011;73488;47.234;-1.540;2024-01-11T13:45:09;5.80;;;4.53;;
83125;SDS011;73488;47.234;-1.540;2024-01-11T13:47:35;7.22;;;5.28;;
83125;SDS011;73488;47.234;-1.540;2024-01-11T13:50:01;13.95;;;11.05;;
83125;SDS011;73488;47.234;-1.540;2024-01-11T13:52:26;16.83;;;12.30;;
83125;SDS011;73488;47.234;-1.540;2024-01-11T13:54:51;17.38;;;13.32;;
83125;SDS011;73488;47.234;-1.540;2024-01-11T13:57:17;16.33;;;12.45;;
83125;SDS011;73488;47.234;-1.540;2024-01-11T13:59:42;17.88;;;13.68;;
83125;SDS011;73488;47.234;-1.540;2024-01-11T14:02:08;15.40;;;11.85;;
83125;SDS011;73488;47.234;-1.540;2024-01-11T14:04:33;15.50;;;10.82;;
83125;SDS011;73488;47.234;-1.540;2024-01-11T14:06:59;17.73;;;11.20;;
83125;SDS011;73488;47.234;-1.540;2024-01-11T14:09:25;13.80;;;10.50;;
83125;SDS011;73488;47.234;-1.540;2024-01-11T14:11:51;13.93;;;10.57;;
83125;SDS011;73488;47.234;-1.540;2024-01-11T14:14:16;12.80;;;9.40;;
83125;SDS011;73488;47.234;-1.540;2024-01-11T14:16:43;13.05;;;9.07;;
83125;SDS011;73488;47.234;-1.540;2024-01-11T14:19:10;12.52;;;9.05;;
83125;SDS011;73488;47.234;-1.540;2024-01-11T14:21:36;11.48;;;9.27;;
83125;SDS011;73488;47.234;-1.540;2024-01-11T14:24:02;12.95;;;9.27;;
83125;SDS011;73488;47.234;-1.540;2024-01-11T14:26:28;12.40;;;8.95;;
83125;SDS011;73488;47.234;-1.540;2024-01-11T14:28:53;12.05;;;8.63;;